sensor_id;sensor_type;location;lat;lon;timestamp;temperature;humidity
47805;DHT22;33568;45.286;9.900;2023-05-10T00:00:23;18.20;99.70
47805;DHT22;33568;45.286;9.900;2023-05-10T00:02:49;18.20;99.70
47805;DHT22;33568;45.286;9.900;2023-05-10T00:05:16;18.20;99.70
47805;DHT22;33568;45.286;9.900;2023-05-10T00:07:43;18.30;99.70
47805;DHT22;33568;45.286;9.900;2023-05-10T00:10:11;18.30;99.70
47805;DHT22;33568;45.286;9.900;2023-05-10T00:12:37;18.30;99.70
47805;DHT22;33568;45.286;9.900;2023-05-10T00:15:04;18.30;99.80
47805;DHT22;33568;45.286;9.900;2023-05-10T00:17:31;18.30;99.80
47805;DHT22;33568;45.286;9.900;2023-05-10T00:19:57;18.30;99.90
47805;DHT22;33568;45.286;9.900;2023-05-10T00:22:24;18.20;99.90
47805;DHT22;33568;45.286;9.900;2023-05-10T00:24:51;18.40;99.90
47805;DHT22;33568;45.286;9.900;2023-05-10T00:27:17;18.40;99.90
47805;DHT22;33568;45.286;9.900;2023-05-10T00:29:44;18.40;99.80
47805;DHT22;33568;45.286;9.900;2023-05-10T00:32:10;18.50;99.90
47805;DHT22;33568;45.286;9.900;2023-05-10T00:34:37;18.60;99.90
47805;DHT22;33568;45.286;9.900;2023-05-10T00:37:04;18.60;99.80
47805;DHT22;33568;45.286;9.900;2023-05-10T00:39:32;18.60;99.90
47805;DHT22;33568;45.286;9.900;2023-05-10T00:41:58;18.50;99.90
47805;DHT22;33568;45.286;9.900;2023-05-10T00:44:26;18.50;99.90
47805;DHT22;33568;45.286;9.900;2023-05-10T00:46:53;18.60;99.90
47805;DHT22;33568;45.286;9.900;2023-05-10T00:49:20;18.60;99.90
47805;DHT22;33568;45.286;9.900;2023-05-10T00:51:47;18.50;99.90
47805;DHT22;33568;45.286;9.900;2023-05-10T00:54:14;18.50;99.90
47805;DHT22;33568;45.286;9.900;2023-05-10T00:56:41;18.50;99.90
47805;DHT22;33568;45.286;9.900;2023-05-10T00:59:09;18.40;99.90
47805;DHT22;33568;45.286;9.900;2023-05-10T01:01:36;18.40;99.90
47805;DHT22;33568;45.286;9.900;2023-05-10T01:04:04;18.40;99.90
47805;DHT22;33568;45.286;9.900;2023-05-10T01:06:30;18.40;99.90
47805;DHT22;33568;45.286;9.900;2023-05-10T01:08:57;18.30;99.90
47805;DHT22;33568;45.286;9.900;2023-05-10T01:11:24;18.30;99.90
47805;DHT22;33568;45.286;9.900;2023-05-10T01:13:55;18.30;99.90
47805;DHT22;33568;45.286;9.900;2023-05-10T01:16:23;18.20;99.90
47805;DHT22;33568;45.286;9.900;2023-05-10T01:18:51;18.30;99.90
47805;DHT22;33568;45.286;9.900;2023-05-10T01:35:47;17.90;99.90
47805;DHT22;33568;45.286;9.900;2023-05-10T01:38:18;17.90;99.90
47805;DHT22;33568;45.286;9.900;2023-05-10T01:41:08;17.80;99.90
47805;DHT22;33568;45.286;9.900;2023-05-10T01:44:09;17.70;99.90
47805;DHT22;33568;45.286;9.900;2023-05-10T01:46:38;17.70;99.90
47805;DHT22;33568;45.286;9.900;2023-05-10T01:49:14;17.60;99.90
47805;DHT22;33568;45.286;9.900;2023-05-10T01:51:54;17.70;99.90
47805;DHT22;33568;45.286;9.900;2023-05-10T01:54:27;17.60;99.90
47805;DHT22;33568;45.286;9.900;2023-05-10T01:57:03;17.60;99.90
47805;DHT22;33568;45.286;9.900;2023-05-10T01:59:34;17.60;99.90
47805;DHT22;33568;45.286;9.900;2023-05-10T02:02:08;17.60;99.90
47805;DHT22;33568;45.286;9.900;2023-05-10T02:04:39;17.50;99.90
47805;DHT22;33568;45.286;9.900;2023-05-10T02:07:08;17.50;99.90
47805;DHT22;33568;45.286;9.900;2023-05-10T02:09:36;17.50;99.90
47805;DHT22;33568;45.286;9.900;2023-05-10T02:12:05;17.50;99.90
47805;DHT22;33568;45.286;9.900;2023-05-10T02:14:35;17.40;99.90
47805;DHT22;33568;45.286;9.900;2023-05-10T02:17:04;17.30;99.90
47805;DHT22;33568;45.286;9.900;2023-05-10T02:19:32;17.20;99.90
47805;DHT22;33568;45.286;9.900;2023-05-10T02:22:00;17.10;99.90
47805;DHT22;33568;45.286;9.900;2023-05-10T02:24:28;17.10;99.90
47805;DHT22;33568;45.286;9.900;2023-05-10T02:26:56;17.10;99.90
47805;DHT22;33568;45.286;9.900;2023-05-10T02:29:27;17.10;99.90
47805;DHT22;33568;45.286;9.900;2023-05-10T02:31:55;17.10;99.90
47805;DHT22;33568;45.286;9.900;2023-05-10T02:34:25;17.10;99.90
47805;DHT22;33568;45.286;9.900;2023-05-10T02:36:53;17.10;99.90
47805;DHT22;33568;45.286;9.900;2023-05-10T02:39:21;17.10;99.90
47805;DHT22;33568;45.286;9.900;2023-05-10T02:41:50;17.10;99.90
47805;DHT22;33568;45.286;9.900;2023-05-10T02:44:20;17.10;99.90
47805;DHT22;33568;45.286;9.900;2023-05-10T02:46:48;17.10;99.90
47805;DHT22;33568;45.286;9.900;2023-05-10T02:49:15;17.10;99.90
47805;DHT22;33568;45.286;9.900;2023-05-10T02:51:49;17.10;99.90
47805;DHT22;33568;45.286;9.900;2023-05-10T02:54:22;17.10;99.90
47805;DHT22;33568;45.286;9.900;2023-05-10T02:56:53;17.00;99.90
47805;DHT22;33568;45.286;9.900;2023-05-10T02:59:22;17.00;99.90
47805;DHT22;33568;45.286;9.900;2023-05-10T03:01:49;16.90;99.90
47805;DHT22;33568;45.286;9.900;2023-05-10T03:04:15;16.90;99.90
47805;DHT22;33568;45.286;9.900;2023-05-10T03:06:42;16.70;99.90
47805;DHT22;33568;45.286;9.900;2023-05-10T03:09:09;16.50;99.90
47805;DHT22;33568;45.286;9.900;2023-05-10T03:17:35;16.20;99.90
47805;DHT22;33568;45.286;9.900;2023-05-10T03:20:08;16.10;99.90
47805;DHT22;33568;45.286;9.900;2023-05-10T03:22:40;16.10;99.90
47805;DHT22;33568;45.286;9.900;2023-05-10T03:25:10;16.00;99.90
47805;DHT22;33568;45.286;9.900;2023-05-10T03:27:40;16.00;99.90
47805;DHT22;33568;45.286;9.900;2023-05-10T03:30:10;16.00;99.90
47805;DHT22;33568;45.286;9.900;2023-05-10T03:32:37;15.90;99.90
47805;DHT22;33568;45.286;9.900;2023-05-10T03:35:08;15.90;99.90
47805;DHT22;33568;45.286;9.900;2023-05-10T03:37:36;16.00;99.90
47805;DHT22;33568;45.286;9.900;2023-05-10T03:40:02;15.90;99.90
47805;DHT22;33568;45.286;9.900;2023-05-10T03:42:32;15.80;99.90
47805;DHT22;33568;45.286;9.900;2023-05-10T03:44:58;15.80;99.90
47805;DHT22;33568;45.286;9.900;2023-05-10T03:47:24;15.80;99.90
47805;DHT22;33568;45.286;9.900;2023-05-10T03:49:52;15.60;99.90
47805;DHT22;33568;45.286;9.900;2023-05-10T03:52:18;15.70;99.90
47805;DHT22;33568;45.286;9.900;2023-05-10T03:54:44;15.60;99.90
47805;DHT22;33568;45.286;9.900;2023-05-10T03:57:11;15.60;99.90
47805;DHT22;33568;45.286;9.900;2023-05-10T03:59:37;15.60;99.90
47805;DHT22;33568;45.286;9.900;2023-05-10T04:02:04;15.60;99.90
47805;DHT22;33568;45.286;9.900;2023-05-10T04:04:30;15.60;99.90
47805;DHT22;33568;45.286;9.900;2023-05-10T04:06:57;15.60;99.90
47805;DHT22;33568;45.286;9.900;2023-05-10T04:09:23;15.60;99.90
47805;DHT22;33568;45.286;9.900;2023-05-10T04:11:50;15.70;99.90
47805;DHT22;33568;45.286;9.900;2023-05-10T04:14:17;15.70;99.90
47805;DHT22;33568;45.286;9.900;2023-05-10T04:16:43;15.70;99.90
47805;DHT22;33568;45.286;9.900;2023-05-10T04:19:10;15.70;99.90
47805;DHT22;33568;45.286;9.900;2023-05-10T04:21:37;15.60;99.90
47805;DHT22;33568;45.286;9.900;2023-05-10T04:24:03;15.60;99.90
47805;DHT22;33568;45.286;9.900;2023-05-10T04:26:30;15.70;99.90
47805;DHT22;33568;45.286;9.900;2023-05-10T04:28:57;15.60;99.90
47805;DHT22;33568;45.286;9.900;2023-05-10T04:31:23;15.70;99.90
47805;DHT22;33568;45.286;9.900;2023-05-10T04:33:50;15.60;99.90
47805;DHT22;33568;45.286;9.900;2023-05-10T04:36:16;15.60;99.90
47805;DHT22;33568;45.286;9.900;2023-05-10T04:38:42;15.50;99.90
47805;DHT22;33568;45.286;9.900;2023-05-10T04:41:10;15.60;99.90
47805;DHT22;33568;45.286;9.900;2023-05-10T04:43:38;15.60;99.90
47805;DHT22;33568;45.286;9.900;2023-05-10T04:46:05;15.60;99.90
47805;DHT22;33568;45.286;9.900;2023-05-10T04:48:33;15.50;99.90
47805;DHT22;33568;45.286;9.900;2023-05-10T04:50:59;15.60;99.90
47805;DHT22;33568;45.286;9.900;2023-05-10T04:53:26;15.50;99.90
47805;DHT22;33568;45.286;9.900;2023-05-10T04:55:52;15.50;99.90
47805;DHT22;33568;45.286;9.900;2023-05-10T04:58:19;15.50;99.90
47805;DHT22;33568;45.286;9.900;2023-05-10T05:00:45;15.40;99.90
47805;DHT22;33568;45.286;9.900;2023-05-10T05:03:12;15.40;99.90
47805;DHT22;33568;45.286;9.900;2023-05-10T05:05:38;15.40;99.90
47805;DHT22;33568;45.286;9.900;2023-05-10T05:08:04;15.50;99.90
47805;DHT22;33568;45.286;9.900;2023-05-10T05:10:31;15.40;99.90
47805;DHT22;33568;45.286;9.900;2023-05-10T05:12:58;15.50;99.90
47805;DHT22;33568;45.286;9.900;2023-05-10T05:15:24;15.60;99.90
47805;DHT22;33568;45.286;9.900;2023-05-10T05:17:50;15.60;99.90
47805;DHT22;33568;45.286;9.900;2023-05-10T05:20:17;15.60;99.90
47805;DHT22;33568;45.286;9.900;2023-05-10T05:22:45;15.60;99.90
47805;DHT22;33568;45.286;9.900;2023-05-10T05:25:11;15.60;99.90
47805;DHT22;33568;45.286;9.900;2023-05-10T05:27:38;15.50;99.90
47805;DHT22;33568;45.286;9.900;2023-05-10T05:30:04;15.60;99.90
47805;DHT22;33568;45.286;9.900;2023-05-10T05:32:31;15.50;99.90
47805;DHT22;33568;45.286;9.900;2023-05-10T05:34:57;15.50;99.90
47805;DHT22;33568;45.286;9.900;2023-05-10T05:37:24;15.60;99.90
47805;DHT22;33568;45.286;9.900;2023-05-10T05:39:51;15.70;99.90
47805;DHT22;33568;45.286;9.900;2023-05-10T05:42:17;15.70;99.90
47805;DHT22;33568;45.286;9.900;2023-05-10T05:44:44;15.80;99.90
47805;DHT22;33568;45.286;9.900;2023-05-10T05:47:11;15.70;99.90
47805;DHT22;33568;45.286;9.900;2023-05-10T05:49:37;15.70;99.90
47805;DHT22;33568;45.286;9.900;2023-05-10T05:52:05;15.80;99.90
47805;DHT22;33568;45.286;9.900;2023-05-10T05:54:32;15.80;99.90
47805;DHT22;33568;45.286;9.900;2023-05-10T05:56:59;15.90;99.90
47805;DHT22;33568;45.286;9.900;2023-05-10T05:59:27;15.90;99.90
47805;DHT22;33568;45.286;9.900;2023-05-10T06:01:53;15.90;99.90
47805;DHT22;33568;45.286;9.900;2023-05-10T06:04:20;16.00;99.90
47805;DHT22;33568;45.286;9.900;2023-05-10T06:06:47;15.90;99.90
47805;DHT22;33568;45.286;9.900;2023-05-10T06:09:14;16.00;99.90
47805;DHT22;33568;45.286;9.900;2023-05-10T06:11:40;16.10;99.90
47805;DHT22;33568;45.286;9.900;2023-05-10T06:14:07;16.10;99.90
47805;DHT22;33568;45.286;9.900;2023-05-10T06:16:35;16.10;99.90
47805;DHT22;33568;45.286;9.900;2023-05-10T06:19:02;16.20;99.90
47805;DHT22;33568;45.286;9.900;2023-05-10T06:21:29;16.20;99.90
47805;DHT22;33568;45.286;9.900;2023-05-10T06:23:57;16.30;99.90
47805;DHT22;33568;45.286;9.900;2023-05-10T06:26:26;16.20;99.90
47805;DHT22;33568;45.286;9.900;2023-05-10T06:28:52;16.20;99.90
47805;DHT22;33568;45.286;9.900;2023-05-10T06:31:19;16.10;99.90
47805;DHT22;33568;45.286;9.900;2023-05-10T06:33:45;16.00;99.90
47805;DHT22;33568;45.286;9.900;2023-05-10T06:36:12;16.00;99.90
47805;DHT22;33568;45.286;9.900;2023-05-10T06:38:40;16.00;99.90
47805;DHT22;33568;45.286;9.900;2023-05-10T06:41:07;16.00;99.90
47805;DHT22;33568;45.286;9.900;2023-05-10T06:43:34;16.10;99.90
47805;DHT22;33568;45.286;9.900;2023-05-10T06:46:02;16.10;99.90
47805;DHT22;33568;45.286;9.900;2023-05-10T06:48:29;16.10;99.90
47805;DHT22;33568;45.286;9.900;2023-05-10T06:50:55;16.00;99.90
47805;DHT22;33568;45.286;9.900;2023-05-10T06:53:22;16.10;99.90
47805;DHT22;33568;45.286;9.900;2023-05-10T06:55:49;16.20;99.90
47805;DHT22;33568;45.286;9.900;2023-05-10T06:58:16;16.20;99.90
47805;DHT22;33568;45.286;9.900;2023-05-10T07:00:42;16.20;99.90
47805;DHT22;33568;45.286;9.900;2023-05-10T07:03:10;16.20;99.90
47805;DHT22;33568;45.286;9.900;2023-05-10T07:05:36;16.20;99.90
47805;DHT22;33568;45.286;9.900;2023-05-10T07:08:03;16.20;99.90
47805;DHT22;33568;45.286;9.900;2023-05-10T07:10:30;16.20;99.90
47805;DHT22;33568;45.286;9.900;2023-05-10T07:12:56;16.20;99.90
47805;DHT22;33568;45.286;9.900;2023-05-10T07:15:23;16.20;99.90
47805;DHT22;33568;45.286;9.900;2023-05-10T07:17:54;16.20;99.90
47805;DHT22;33568;45.286;9.900;2023-05-10T07:20:21;16.30;99.90
47805;DHT22;33568;45.286;9.900;2023-05-10T07:22:48;16.40;99.90
47805;DHT22;33568;45.286;9.900;2023-05-10T07:25:15;16.40;99.90
47805;DHT22;33568;45.286;9.900;2023-05-10T07:27:41;16.40;99.90
47805;DHT22;33568;45.286;9.900;2023-05-10T07:30:08;16.40;99.90
47805;DHT22;33568;45.286;9.900;2023-05-10T07:32:34;16.40;99.90
47805;DHT22;33568;45.286;9.900;2023-05-10T07:35:01;16.30;99.90
47805;DHT22;33568;45.286;9.900;2023-05-10T07:37:28;16.30;99.90
47805;DHT22;33568;45.286;9.900;2023-05-10T07:39:54;16.20;99.90
47805;DHT22;33568;45.286;9.900;2023-05-10T07:42:22;16.20;99.90
47805;DHT22;33568;45.286;9.900;2023-05-10T07:44:49;16.30;99.90
47805;DHT22;33568;45.286;9.900;2023-05-10T07:47:15;16.30;99.90
47805;DHT22;33568;45.286;9.900;2023-05-10T07:49:41;16.40;99.90
47805;DHT22;33568;45.286;9.900;2023-05-10T07:52:08;16.30;99.90
47805;DHT22;33568;45.286;9.900;2023-05-10T07:54:34;16.30;99.90
47805;DHT22;33568;45.286;9.900;2023-05-10T07:57:01;16.30;99.90
47805;DHT22;33568;45.286;9.900;2023-05-10T07:59:27;16.20;99.90
47805;DHT22;33568;45.286;9.900;2023-05-10T08:01:54;16.10;99.90
47805;DHT22;33568;45.286;9.900;2023-05-10T08:04:20;16.10;99.90
47805;DHT22;33568;45.286;9.900;2023-05-10T08:06:47;16.00;99.90
47805;DHT22;33568;45.286;9.900;2023-05-10T08:09:14;15.90;99.90
47805;DHT22;33568;45.286;9.900;2023-05-10T08:11:40;15.90;99.90
47805;DHT22;33568;45.286;9.900;2023-05-10T08:14:07;15.90;99.90
47805;DHT22;33568;45.286;9.900;2023-05-10T08:16:33;16.00;99.90
47805;DHT22;33568;45.286;9.900;2023-05-10T08:19:00;15.90;99.90
47805;DHT22;33568;45.286;9.900;2023-05-10T08:21:26;15.90;99.90
47805;DHT22;33568;45.286;9.900;2023-05-10T08:23:53;15.80;99.90
47805;DHT22;33568;45.286;9.900;2023-05-10T08:26:19;15.90;99.90
47805;DHT22;33568;45.286;9.900;2023-05-10T08:28:47;15.80;99.90
47805;DHT22;33568;45.286;9.900;2023-05-10T08:31:15;15.80;99.90
47805;DHT22;33568;45.286;9.900;2023-05-10T08:33:42;15.70;99.90
47805;DHT22;33568;45.286;9.900;2023-05-10T08:36:09;15.70;99.90
47805;DHT22;33568;45.286;9.900;2023-05-10T08:38:35;15.60;99.90
47805;DHT22;33568;45.286;9.900;2023-05-10T08:41:04;15.60;99.90
47805;DHT22;33568;45.286;9.900;2023-05-10T08:43:31;15.60;99.90
47805;DHT22;33568;45.286;9.900;2023-05-10T08:46:00;15.60;99.90
47805;DHT22;33568;45.286;9.900;2023-05-10T08:48:29;15.60;99.90
47805;DHT22;33568;45.286;9.900;2023-05-10T08:50:58;15.60;99.90
47805;DHT22;33568;45.286;9.900;2023-05-10T08:53:27;15.60;99.90
47805;DHT22;33568;45.286;9.900;2023-05-10T08:55:55;15.60;99.90
47805;DHT22;33568;45.286;9.900;2023-05-10T08:58:21;15.60;99.90
47805;DHT22;33568;45.286;9.900;2023-05-10T09:00:49;15.60;99.90
47805;DHT22;33568;45.286;9.900;2023-05-10T09:03:18;15.70;99.90
47805;DHT22;33568;45.286;9.900;2023-05-10T09:05:45;15.70;99.90
47805;DHT22;33568;45.286;9.900;2023-05-10T09:08:12;15.60;99.90
47805;DHT22;33568;45.286;9.900;2023-05-10T09:10:39;15.70;99.90
47805;DHT22;33568;45.286;9.900;2023-05-10T09:13:09;15.80;99.90
47805;DHT22;33568;45.286;9.900;2023-05-10T09:15:36;15.90;99.90
47805;DHT22;33568;45.286;9.900;2023-05-10T09:18:03;15.90;99.90
47805;DHT22;33568;45.286;9.900;2023-05-10T09:20:30;15.80;99.90
47805;DHT22;33568;45.286;9.900;2023-05-10T09:22:57;15.80;99.90
47805;DHT22;33568;45.286;9.900;2023-05-10T09:25:24;15.70;99.90
47805;DHT22;33568;45.286;9.900;2023-05-10T09:27:52;15.70;99.90
47805;DHT22;33568;45.286;9.900;2023-05-10T09:30:30;15.60;99.90
47805;DHT22;33568;45.286;9.900;2023-05-10T09:32:58;15.50;99.90
47805;DHT22;33568;45.286;9.900;2023-05-10T09:35:29;15.50;99.90
47805;DHT22;33568;45.286;9.900;2023-05-10T09:37:58;15.50;99.90
47805;DHT22;33568;45.286;9.900;2023-05-10T09:40:27;15.50;99.90
47805;DHT22;33568;45.286;9.900;2023-05-10T09:43:07;15.50;99.90
47805;DHT22;33568;45.286;9.900;2023-05-10T09:45:35;15.60;99.90
47805;DHT22;33568;45.286;9.900;2023-05-10T09:48:03;15.50;99.90
47805;DHT22;33568;45.286;9.900;2023-05-10T09:50:31;15.50;99.90
47805;DHT22;33568;45.286;9.900;2023-05-10T09:53:00;15.60;99.90
47805;DHT22;33568;45.286;9.900;2023-05-10T09:55:45;15.70;99.90
47805;DHT22;33568;45.286;9.900;2023-05-10T09:58:15;15.70;99.90
47805;DHT22;33568;45.286;9.900;2023-05-10T10:00:43;15.70;99.90
47805;DHT22;33568;45.286;9.900;2023-05-10T10:03:18;15.80;99.90
47805;DHT22;33568;45.286;9.900;2023-05-10T10:05:46;15.90;99.90
47805;DHT22;33568;45.286;9.900;2023-05-10T10:08:14;16.00;99.90
47805;DHT22;33568;45.286;9.900;2023-05-10T10:10:41;16.10;99.90
47805;DHT22;33568;45.286;9.900;2023-05-10T10:13:10;16.10;99.90
47805;DHT22;33568;45.286;9.900;2023-05-10T10:15:37;16.20;99.90
47805;DHT22;33568;45.286;9.900;2023-05-10T10:18:04;16.20;99.90
47805;DHT22;33568;45.286;9.900;2023-05-10T10:20:31;16.20;99.90
47805;DHT22;33568;45.286;9.900;2023-05-10T10:22:57;16.20;99.90
47805;DHT22;33568;45.286;9.900;2023-05-10T10:25:24;16.10;99.90
47805;DHT22;33568;45.286;9.900;2023-05-10T10:30:41;15.90;99.90
47805;DHT22;33568;45.286;9.900;2023-05-10T10:35:38;15.80;99.90
47805;DHT22;33568;45.286;9.900;2023-05-10T10:38:08;15.80;99.90
47805;DHT22;33568;45.286;9.900;2023-05-10T10:40:35;15.90;99.90
47805;DHT22;33568;45.286;9.900;2023-05-10T10:43:27;15.90;99.90
47805;DHT22;33568;45.286;9.900;2023-05-10T10:48:49;15.90;99.90
47805;DHT22;33568;45.286;9.900;2023-05-10T10:51:17;15.90;99.90
47805;DHT22;33568;45.286;9.900;2023-05-10T10:53:48;15.90;99.90
47805;DHT22;33568;45.286;9.900;2023-05-10T10:56:14;15.90;99.90
47805;DHT22;33568;45.286;9.900;2023-05-10T10:58:42;16.00;99.90
47805;DHT22;33568;45.286;9.900;2023-05-10T11:01:16;16.10;99.90
47805;DHT22;33568;45.286;9.900;2023-05-10T11:06:35;15.90;99.90
47805;DHT22;33568;45.286;9.900;2023-05-10T11:09:12;15.80;99.90
47805;DHT22;33568;45.286;9.900;2023-05-10T11:11:50;15.80;99.90
47805;DHT22;33568;45.286;9.900;2023-05-10T11:14:21;15.90;99.90
47805;DHT22;33568;45.286;9.900;2023-05-10T11:16:48;16.00;99.90
47805;DHT22;33568;45.286;9.900;2023-05-10T11:19:17;16.00;99.90
47805;DHT22;33568;45.286;9.900;2023-05-10T11:21:49;16.00;99.90
47805;DHT22;33568;45.286;9.900;2023-05-10T11:24:25;16.10;99.90
47805;DHT22;33568;45.286;9.900;2023-05-10T11:26:53;16.00;99.90
47805;DHT22;33568;45.286;9.900;2023-05-10T11:29:19;15.90;99.90
47805;DHT22;33568;45.286;9.900;2023-05-10T11:31:47;15.90;99.90
47805;DHT22;33568;45.286;9.900;2023-05-10T11:34:28;15.90;99.90
47805;DHT22;33568;45.286;9.900;2023-05-10T11:36:56;16.00;99.90
47805;DHT22;33568;45.286;9.900;2023-05-10T11:39:27;16.10;99.90
47805;DHT22;33568;45.286;9.900;2023-05-10T11:41:55;16.10;99.90
47805;DHT22;33568;45.286;9.900;2023-05-10T11:44:21;16.00;99.90
47805;DHT22;33568;45.286;9.900;2023-05-10T11:46:48;16.10;99.90
47805;DHT22;33568;45.286;9.900;2023-05-10T11:49:15;16.10;99.90
47805;DHT22;33568;45.286;9.900;2023-05-10T11:51:42;16.00;99.90
47805;DHT22;33568;45.286;9.900;2023-05-10T11:54:10;15.90;99.90
47805;DHT22;33568;45.286;9.900;2023-05-10T11:56:38;16.00;99.90
47805;DHT22;33568;45.286;9.900;2023-05-10T11:59:05;16.10;99.90
47805;DHT22;33568;45.286;9.900;2023-05-10T12:01:32;16.20;99.90
47805;DHT22;33568;45.286;9.900;2023-05-10T12:03:59;16.20;99.90
47805;DHT22;33568;45.286;9.900;2023-05-10T12:06:27;16.20;99.90
47805;DHT22;33568;45.286;9.900;2023-05-10T12:08:54;16.20;99.90
47805;DHT22;33568;45.286;9.900;2023-05-10T12:11:25;16.20;99.90
47805;DHT22;33568;45.286;9.900;2023-05-10T12:13:51;16.10;99.90
47805;DHT22;33568;45.286;9.900;2023-05-10T12:16:28;16.10;99.90
47805;DHT22;33568;45.286;9.900;2023-05-10T12:18:59;16.20;99.90
47805;DHT22;33568;45.286;9.900;2023-05-10T12:21:28;16.10;99.90
47805;DHT22;33568;45.286;9.900;2023-05-10T12:24:02;16.20;99.90
47805;DHT22;33568;45.286;9.900;2023-05-10T12:26:29;16.20;99.90
47805;DHT22;33568;45.286;9.900;2023-05-10T12:29:15;16.20;99.90
47805;DHT22;33568;45.286;9.900;2023-05-10T12:31:57;16.10;99.90
47805;DHT22;33568;45.286;9.900;2023-05-10T12:36:55;16.20;99.90
47805;DHT22;33568;45.286;9.900;2023-05-10T12:39:22;16.30;99.90
47805;DHT22;33568;45.286;9.900;2023-05-10T12:41:48;16.40;99.90
47805;DHT22;33568;45.286;9.900;2023-05-10T12:44:15;16.40;99.90
47805;DHT22;33568;45.286;9.900;2023-05-10T12:46:41;16.60;99.90
47805;DHT22;33568;45.286;9.900;2023-05-10T12:49:08;16.70;99.90
47805;DHT22;33568;45.286;9.900;2023-05-10T12:51:34;16.70;99.90
47805;DHT22;33568;45.286;9.900;2023-05-10T12:54:01;16.60;99.90
47805;DHT22;33568;45.286;9.900;2023-05-10T12:56:28;16.50;99.90
47805;DHT22;33568;45.286;9.900;2023-05-10T12:58:54;16.60;99.90
47805;DHT22;33568;45.286;9.900;2023-05-10T13:01:21;16.60;99.90
47805;DHT22;33568;45.286;9.900;2023-05-10T13:03:47;16.60;99.90
47805;DHT22;33568;45.286;9.900;2023-05-10T13:06:13;16.80;99.90
47805;DHT22;33568;45.286;9.900;2023-05-10T13:08:40;16.80;99.90
47805;DHT22;33568;45.286;9.900;2023-05-10T13:11:07;16.90;99.90
47805;DHT22;33568;45.286;9.900;2023-05-10T13:13:33;16.90;99.90
47805;DHT22;33568;45.286;9.900;2023-05-10T13:16:01;17.00;99.90
47805;DHT22;33568;45.286;9.900;2023-05-10T13:18:27;17.20;99.90
47805;DHT22;33568;45.286;9.900;2023-05-10T13:20:54;17.20;99.90
47805;DHT22;33568;45.286;9.900;2023-05-10T13:23:21;17.40;99.90
47805;DHT22;33568;45.286;9.900;2023-05-10T13:25:48;17.60;99.90
47805;DHT22;33568;45.286;9.900;2023-05-10T13:28:14;17.70;99.90
47805;DHT22;33568;45.286;9.900;2023-05-10T13:30:41;17.70;99.90
47805;DHT22;33568;45.286;9.900;2023-05-10T13:33:07;17.80;99.90
47805;DHT22;33568;45.286;9.900;2023-05-10T13:35:34;17.80;99.90
47805;DHT22;33568;45.286;9.900;2023-05-10T13:38:01;17.80;99.90
47805;DHT22;33568;45.286;9.900;2023-05-10T13:40:27;17.90;99.90
47805;DHT22;33568;45.286;9.900;2023-05-10T13:42:54;17.90;99.90
47805;DHT22;33568;45.286;9.900;2023-05-10T13:45:20;18.00;99.90
47805;DHT22;33568;45.286;9.900;2023-05-10T13:47:50;17.90;99.60
47805;DHT22;33568;45.286;9.900;2023-05-10T13:50:20;17.80;99.90
47805;DHT22;33568;45.286;9.900;2023-05-10T13:52:52;17.80;99.90
47805;DHT22;33568;45.286;9.900;2023-05-10T13:55:18;17.80;99.90
47805;DHT22;33568;45.286;9.900;2023-05-10T13:57:44;17.50;99.90
47805;DHT22;33568;45.286;9.900;2023-05-10T14:00:11;17.40;99.90
47805;DHT22;33568;45.286;9.900;2023-05-10T14:02:38;17.40;99.90
47805;DHT22;33568;45.286;9.900;2023-05-10T14:05:04;17.40;99.90
47805;DHT22;33568;45.286;9.900;2023-05-10T14:07:31;17.30;99.90
47805;DHT22;33568;45.286;9.900;2023-05-10T14:09:57;17.40;99.90
47805;DHT22;33568;45.286;9.900;2023-05-10T14:12:24;17.30;99.90
47805;DHT22;33568;45.286;9.900;2023-05-10T14:14:50;17.30;99.90
47805;DHT22;33568;45.286;9.900;2023-05-10T14:17:17;17.40;99.90
47805;DHT22;33568;45.286;9.900;2023-05-10T14:19:44;17.40;99.90
47805;DHT22;33568;45.286;9.900;2023-05-10T14:22:10;17.50;99.90
47805;DHT22;33568;45.286;9.900;2023-05-10T14:24:37;17.60;99.90
47805;DHT22;33568;45.286;9.900;2023-05-10T14:27:04;17.90;99.90
47805;DHT22;33568;45.286;9.900;2023-05-10T14:29:32;18.10;99.90
47805;DHT22;33568;45.286;9.900;2023-05-10T14:31:59;18.20;99.80
47805;DHT22;33568;45.286;9.900;2023-05-10T14:34:25;18.30;99.50
47805;DHT22;33568;45.286;9.900;2023-05-10T14:36:51;18.20;99.40
47805;DHT22;33568;45.286;9.900;2023-05-10T14:39:18;18.30;99.40
47805;DHT22;33568;45.286;9.900;2023-05-10T14:41:44;18.20;99.50
47805;DHT22;33568;45.286;9.900;2023-05-10T14:44:11;18.30;99.30
47805;DHT22;33568;45.286;9.900;2023-05-10T14:46:38;18.20;99.10
47805;DHT22;33568;45.286;9.900;2023-05-10T14:49:05;18.20;99.20
47805;DHT22;33568;45.286;9.900;2023-05-10T14:51:32;18.20;99.20
47805;DHT22;33568;45.286;9.900;2023-05-10T14:53:58;18.20;99.20
47805;DHT22;33568;45.286;9.900;2023-05-10T14:56:25;18.20;99.00
47805;DHT22;33568;45.286;9.900;2023-05-10T14:58:52;18.30;99.10
47805;DHT22;33568;45.286;9.900;2023-05-10T15:01:18;18.30;98.90
47805;DHT22;33568;45.286;9.900;2023-05-10T15:03:45;18.30;98.70
47805;DHT22;33568;45.286;9.900;2023-05-10T15:06:13;18.40;98.50
47805;DHT22;33568;45.286;9.900;2023-05-10T15:08:39;18.30;98.40
47805;DHT22;33568;45.286;9.900;2023-05-10T15:11:06;18.40;98.30
47805;DHT22;33568;45.286;9.900;2023-05-10T15:13:32;18.50;98.30
47805;DHT22;33568;45.286;9.900;2023-05-10T15:15:59;18.50;98.30
47805;DHT22;33568;45.286;9.900;2023-05-10T15:18:26;18.50;98.30
47805;DHT22;33568;45.286;9.900;2023-05-10T15:20:52;18.40;98.40
47805;DHT22;33568;45.286;9.900;2023-05-10T15:23:19;18.40;98.20
47805;DHT22;33568;45.286;9.900;2023-05-10T15:25:45;18.50;98.20
47805;DHT22;33568;45.286;9.900;2023-05-10T15:28:12;18.50;98.10
47805;DHT22;33568;45.286;9.900;2023-05-10T15:30:39;18.50;97.90
47805;DHT22;33568;45.286;9.900;2023-05-10T15:33:06;18.50;97.80
47805;DHT22;33568;45.286;9.900;2023-05-10T15:35:34;18.60;97.80
47805;DHT22;33568;45.286;9.900;2023-05-10T15:38:04;18.70;97.70
47805;DHT22;33568;45.286;9.900;2023-05-10T15:40:31;18.80;97.50
47805;DHT22;33568;45.286;9.900;2023-05-10T15:42:57;18.90;97.30
47805;DHT22;33568;45.286;9.900;2023-05-10T15:45:24;19.00;97.30
47805;DHT22;33568;45.286;9.900;2023-05-10T15:47:50;18.90;97.10
47805;DHT22;33568;45.286;9.900;2023-05-10T15:50:17;18.90;97.20
47805;DHT22;33568;45.286;9.900;2023-05-10T15:52:44;19.00;97.20
47805;DHT22;33568;45.286;9.900;2023-05-10T15:55:11;19.00;97.30
47805;DHT22;33568;45.286;9.900;2023-05-10T15:57:42;19.00;97.20
47805;DHT22;33568;45.286;9.900;2023-05-10T16:00:10;19.00;97.00
47805;DHT22;33568;45.286;9.900;2023-05-10T16:02:40;19.00;97.10
47805;DHT22;33568;45.286;9.900;2023-05-10T16:05:07;19.00;97.10
47805;DHT22;33568;45.286;9.900;2023-05-10T16:07:34;19.00;97.20